sensor_id;sensor_type;location;lat;lon;timestamp;P1;durP1;ratioP1;P2;durP2;ratioP2
15132;SDS011;7667;51.232;17.110;2023-08-21T00:01:26;13.63;;;12.35;;
15132;SDS011;7667;51.232;17.110;2023-08-21T00:03:54;13.93;;;12.68;;
15132;SDS011;7667;51.232;17.110;2023-08-21T00:06:22;14.52;;;13.13;;
15132;SDS011;7667;51.232;17.110;2023-08-21T00:08:49;14.25;;;13.05;;
15132;SDS011;7667;51.232;17.110;2023-08-21T00:11:17;14.68;;;13.35;;
15132;SDS011;7667;51.232;17.110;2023-08-21T00:13:44;14.27;;;12.98;;
15132;SDS011;7667;51.232;17.110;2023-08-21T00:16:16;13.55;;;12.35;;
15132;SDS011;7667;51.232;17.110;2023-08-21T00:18:44;14.40;;;12.90;;
15132;SDS011;7667;51.232;17.110;2023-08-21T00:21:12;13.88;;;12.57;;
15132;SDS011;7667;51.232;17.110;2023-08-21T00:23:40;13.40;;;12.20;;
15132;SDS011;7667;51.232;17.110;2023-08-21T00:26:07;13.88;;;12.60;;
15132;SDS011;7667;51.232;17.110;2023-08-21T00:28:35;13.63;;;12.43;;
15132;SDS011;7667;51.232;17.110;2023-08-21T00:31:02;14.23;;;12.93;;
15132;SDS011;7667;51.232;17.110;2023-08-21T00:33:31;14.57;;;13.18;;
15132;SDS011;7667;51.232;17.110;2023-08-21T00:36:00;14.82;;;13.52;;
15132;SDS011;7667;51.232;17.110;2023-08-21T00:38:27;15.00;;;13.52;;
15132;SDS011;7667;51.232;17.110;2023-08-21T00:40:55;15.23;;;13.65;;
15132;SDS011;7667;51.232;17.110;2023-08-21T00:43:24;15.15;;;13.48;;
15132;SDS011;7667;51.232;17.110;2023-08-21T00:45:51;15.32;;;13.73;;
15132;SDS011;7667;51.232;17.110;2023-08-21T00:48:19;15.23;;;13.77;;
15132;SDS011;7667;51.232;17.110;2023-08-21T00:50:47;16.23;;;14.73;;
15132;SDS011;7667;51.232;17.110;2023-08-21T00:53:15;15.73;;;14.35;;
15132;SDS011;7667;51.232;17.110;2023-08-21T00:55:43;16.85;;;15.25;;
15132;SDS011;7667;51.232;17.110;2023-08-21T00:58:11;16.95;;;15.30;;
15132;SDS011;7667;51.232;17.110;2023-08-21T01:00:40;17.25;;;15.45;;
15132;SDS011;7667;51.232;17.110;2023-08-21T01:03:12;17.02;;;15.35;;
15132;SDS011;7667;51.232;17.110;2023-08-21T01:05:40;17.20;;;15.60;;
15132;SDS011;7667;51.232;17.110;2023-08-21T01:15:06;18.77;;;16.98;;
15132;SDS011;7667;51.232;17.110;2023-08-21T01:17:36;20.40;;;18.30;;
15132;SDS011;7667;51.232;17.110;2023-08-21T01:20:06;19.25;;;17.50;;
15132;SDS011;7667;51.232;17.110;2023-08-21T01:22:41;19.38;;;17.48;;
15132;SDS011;7667;51.232;17.110;2023-08-21T01:25:16;19.98;;;18.10;;
15132;SDS011;7667;51.232;17.110;2023-08-21T01:27:46;20.75;;;18.85;;
15132;SDS011;7667;51.232;17.110;2023-08-21T01:30:16;20.45;;;18.48;;
15132;SDS011;7667;51.232;17.110;2023-08-21T01:32:53;20.77;;;18.67;;
15132;SDS011;7667;51.232;17.110;2023-08-21T01:35:26;20.40;;;18.55;;
15132;SDS011;7667;51.232;17.110;2023-08-21T01:37:56;20.52;;;18.52;;
15132;SDS011;7667;51.232;17.110;2023-08-21T01:40:24;20.58;;;18.70;;
15132;SDS011;7667;51.232;17.110;2023-08-21T01:42:52;19.95;;;18.08;;
15132;SDS011;7667;51.232;17.110;2023-08-21T01:45:21;19.58;;;17.67;;
15132;SDS011;7667;51.232;17.110;2023-08-21T01:47:49;19.77;;;17.88;;
15132;SDS011;7667;51.232;17.110;2023-08-21T01:50:17;18.77;;;16.98;;
15132;SDS011;7667;51.232;17.110;2023-08-21T01:52:45;18.85;;;17.02;;
15132;SDS011;7667;51.232;17.110;2023-08-21T01:55:13;18.67;;;16.88;;
15132;SDS011;7667;51.232;17.110;2023-08-21T01:57:41;19.00;;;17.10;;
15132;SDS011;7667;51.232;17.110;2023-08-21T02:00:09;20.40;;;18.52;;
15132;SDS011;7667;51.232;17.110;2023-08-21T02:02:37;20.30;;;18.30;;
15132;SDS011;7667;51.232;17.110;2023-08-21T02:05:05;20.00;;;18.02;;
15132;SDS011;7667;51.232;17.110;2023-08-21T02:07:33;20.27;;;18.40;;
15132;SDS011;7667;51.232;17.110;2023-08-21T02:10:01;19.75;;;17.92;;
15132;SDS011;7667;51.232;17.110;2023-08-21T02:12:28;20.00;;;18.20;;
15132;SDS011;7667;51.232;17.110;2023-08-21T02:14:56;20.77;;;18.77;;
15132;SDS011;7667;51.232;17.110;2023-08-21T02:17:25;19.17;;;17.38;;
15132;SDS011;7667;51.232;17.110;2023-08-21T02:19:53;18.48;;;16.88;;
15132;SDS011;7667;51.232;17.110;2023-08-21T02:22:21;18.85;;;17.05;;
15132;SDS011;7667;51.232;17.110;2023-08-21T02:24:48;20.75;;;18.75;;
15132;SDS011;7667;51.232;17.110;2023-08-21T02:27:16;21.52;;;19.42;;
15132;SDS011;7667;51.232;17.110;2023-08-21T02:29:43;23.17;;;20.90;;
15132;SDS011;7667;51.232;17.110;2023-08-21T02:32:11;22.80;;;20.60;;
15132;SDS011;7667;51.232;17.110;2023-08-21T02:34:39;23.85;;;21.58;;
15132;SDS011;7667;51.232;17.110;2023-08-21T02:37:07;22.10;;;20.10;;
15132;SDS011;7667;51.232;17.110;2023-08-21T02:39:34;22.33;;;20.38;;
15132;SDS011;7667;51.232;17.110;2023-08-21T02:42:02;21.45;;;19.27;;
15132;SDS011;7667;51.232;17.110;2023-08-21T02:44:29;18.80;;;17.05;;
15132;SDS011;7667;51.232;17.110;2023-08-21T02:46:57;17.55;;;15.85;;
15132;SDS011;7667;51.232;17.110;2023-08-21T02:49:25;16.40;;;14.90;;
15132;SDS011;7667;51.232;17.110;2023-08-21T02:51:52;16.75;;;15.15;;
15132;SDS011;7667;51.232;17.110;2023-08-21T02:54:20;17.05;;;15.45;;
15132;SDS011;7667;51.232;17.110;2023-08-21T02:56:47;16.10;;;14.70;;
15132;SDS011;7667;51.232;17.110;2023-08-21T02:59:15;15.35;;;13.95;;
15132;SDS011;7667;51.232;17.110;2023-08-21T03:01:44;15.30;;;13.90;;
15132;SDS011;7667;51.232;17.110;2023-08-21T03:04:12;15.27;;;13.98;;
15132;SDS011;7667;51.232;17.110;2023-08-21T03:06:39;15.73;;;14.30;;
15132;SDS011;7667;51.232;17.110;2023-08-21T03:09:07;15.45;;;14.05;;
15132;SDS011;7667;51.232;17.110;2023-08-21T03:11:34;17.50;;;15.88;;
15132;SDS011;7667;51.232;17.110;2023-08-21T03:14:02;19.40;;;17.70;;
15132;SDS011;7667;51.232;17.110;2023-08-21T03:16:29;19.05;;;17.13;;
15132;SDS011;7667;51.232;17.110;2023-08-21T03:18:58;19.08;;;17.25;;
15132;SDS011;7667;51.232;17.110;2023-08-21T03:21:27;17.75;;;16.15;;
15132;SDS011;7667;51.232;17.110;2023-08-21T03:23:58;16.13;;;14.73;;
15132;SDS011;7667;51.232;17.110;2023-08-21T03:26:30;15.85;;;14.45;;
15132;SDS011;7667;51.232;17.110;2023-08-21T03:28:58;13.05;;;11.73;;
15132;SDS011;7667;51.232;17.110;2023-08-21T03:31:25;13.45;;;12.23;;
15132;SDS011;7667;51.232;17.110;2023-08-21T03:33:53;13.77;;;12.48;;
15132;SDS011;7667;51.232;17.110;2023-08-21T03:36:20;12.95;;;11.75;;
15132;SDS011;7667;51.232;17.110;2023-08-21T03:38:57;13.68;;;12.38;;
15132;SDS011;7667;51.232;17.110;2023-08-21T03:41:26;14.88;;;13.48;;
15132;SDS011;7667;51.232;17.110;2023-08-21T03:43:54;14.00;;;12.80;;
15132;SDS011;7667;51.232;17.110;2023-08-21T03:46:21;14.20;;;12.88;;
15132;SDS011;7667;51.232;17.110;2023-08-21T03:48:49;13.30;;;12.02;;
15132;SDS011;7667;51.232;17.110;2023-08-21T03:51:18;14.73;;;13.37;;
15132;SDS011;7667;51.232;17.110;2023-08-21T03:53:45;15.40;;;13.97;;
15132;SDS011;7667;51.232;17.110;2023-08-21T03:56:13;14.63;;;13.33;;
15132;SDS011;7667;51.232;17.110;2023-08-21T03:58:41;15.33;;;13.90;;
15132;SDS011;7667;51.232;17.110;2023-08-21T04:01:08;16.53;;;15.03;;
15132;SDS011;7667;51.232;17.110;2023-08-21T04:03:36;17.13;;;15.43;;
15132;SDS011;7667;51.232;17.110;2023-08-21T04:06:04;17.90;;;16.15;;
15132;SDS011;7667;51.232;17.110;2023-08-21T04:08:32;18.10;;;16.38;;
15132;SDS011;7667;51.232;17.110;2023-08-21T04:10:59;17.53;;;15.90;;
15132;SDS011;7667;51.232;17.110;2023-08-21T04:13:28;18.97;;;17.17;;
15132;SDS011;7667;51.232;17.110;2023-08-21T04:15:56;20.13;;;18.23;;
15132;SDS011;7667;51.232;17.110;2023-08-21T04:18:23;18.57;;;16.77;;
15132;SDS011;7667;51.232;17.110;2023-08-21T04:21:07;18.90;;;17.17;;
15132;SDS011;7667;51.232;17.110;2023-08-21T04:23:35;20.07;;;18.13;;
15132;SDS011;7667;51.232;17.110;2023-08-21T04:26:03;17.17;;;15.57;;
15132;SDS011;7667;51.232;17.110;2023-08-21T04:28:31;17.47;;;15.87;;
15132;SDS011;7667;51.232;17.110;2023-08-21T04:31:00;17.50;;;15.90;;
15132;SDS011;7667;51.232;17.110;2023-08-21T04:33:28;17.63;;;15.93;;
15132;SDS011;7667;51.232;17.110;2023-08-21T04:35:56;17.03;;;15.33;;
15132;SDS011;7667;51.232;17.110;2023-08-21T04:38:23;17.93;;;16.13;;
15132;SDS011;7667;51.232;17.110;2023-08-21T04:40:51;16.73;;;15.03;;
15132;SDS011;7667;51.232;17.110;2023-08-21T04:43:19;16.57;;;14.97;;
15132;SDS011;7667;51.232;17.110;2023-08-21T04:45:50;16.67;;;14.63;;
15132;SDS011;7667;51.232;17.110;2023-08-21T04:48:22;16.47;;;14.77;;
15132;SDS011;7667;51.232;17.110;2023-08-21T04:50:49;16.20;;;14.70;;
15132;SDS011;7667;51.232;17.110;2023-08-21T04:53:17;15.67;;;14.23;;
15132;SDS011;7667;51.232;17.110;2023-08-21T04:55:44;15.43;;;14.03;;
15132;SDS011;7667;51.232;17.110;2023-08-21T04:58:13;14.10;;;12.77;;
15132;SDS011;7667;51.232;17.110;2023-08-21T05:00:41;14.00;;;12.57;;
15132;SDS011;7667;51.232;17.110;2023-08-21T05:03:11;11.77;;;10.57;;
15132;SDS011;7667;51.232;17.110;2023-08-21T05:05:39;11.33;;;10.23;;
15132;SDS011;7667;51.232;17.110;2023-08-21T05:08:07;10.53;;;9.63;;
15132;SDS011;7667;51.232;17.110;2023-08-21T05:10:34;10.63;;;9.73;;
15132;SDS011;7667;51.232;17.110;2023-08-21T05:13:03;10.43;;;9.43;;
15132;SDS011;7667;51.232;17.110;2023-08-21T05:15:31;9.67;;;8.87;;
15132;SDS011;7667;51.232;17.110;2023-08-21T05:17:59;9.93;;;8.83;;
15132;SDS011;7667;51.232;17.110;2023-08-21T05:20:26;8.73;;;7.93;;
15132;SDS011;7667;51.232;17.110;2023-08-21T05:22:54;8.33;;;7.30;;
15132;SDS011;7667;51.232;17.110;2023-08-21T05:25:22;7.43;;;6.73;;
15132;SDS011;7667;51.232;17.110;2023-08-21T05:27:50;7.43;;;6.70;;
15132;SDS011;7667;51.232;17.110;2023-08-21T05:30:17;7.10;;;6.20;;
15132;SDS011;7667;51.232;17.110;2023-08-21T05:32:45;6.07;;;5.57;;
15132;SDS011;7667;51.232;17.110;2023-08-21T05:35:13;5.70;;;5.20;;
15132;SDS011;7667;51.232;17.110;2023-08-21T05:37:41;6.13;;;5.53;;
15132;SDS011;7667;51.232;17.110;2023-08-21T05:40:09;5.50;;;5.10;;
15132;SDS011;7667;51.232;17.110;2023-08-21T05:42:37;5.80;;;5.20;;
15132;SDS011;7667;51.232;17.110;2023-08-21T05:45:05;5.97;;;5.13;;
15132;SDS011;7667;51.232;17.110;2023-08-21T05:47:33;6.30;;;5.27;;
15132;SDS011;7667;51.232;17.110;2023-08-21T05:50:01;5.60;;;5.10;;
15132;SDS011;7667;51.232;17.110;2023-08-21T05:52:28;6.07;;;5.57;;
15132;SDS011;7667;51.232;17.110;2023-08-21T05:54:56;5.50;;;5.00;;
15132;SDS011;7667;51.232;17.110;2023-08-21T05:57:24;5.50;;;5.00;;
15132;SDS011;7667;51.232;17.110;2023-08-21T05:59:52;5.43;;;4.93;;
15132;SDS011;7667;51.232;17.110;2023-08-21T06:02:19;5.87;;;5.30;;
15132;SDS011;7667;51.232;17.110;2023-08-21T06:04:47;5.73;;;5.23;;
15132;SDS011;7667;51.232;17.110;2023-08-21T06:07:14;6.57;;;5.60;;
15132;SDS011;7667;51.232;17.110;2023-08-21T06:09:42;5.50;;;5.10;;
15132;SDS011;7667;51.232;17.110;2023-08-21T06:12:09;5.57;;;5.07;;
15132;SDS011;7667;51.232;17.110;2023-08-21T06:14:37;5.10;;;4.70;;
15132;SDS011;7667;51.232;17.110;2023-08-21T06:17:04;5.47;;;4.97;;
15132;SDS011;7667;51.232;17.110;2023-08-21T06:19:32;5.37;;;4.87;;
15132;SDS011;7667;51.232;17.110;2023-08-21T06:22:00;7.20;;;4.70;;
15132;SDS011;7667;51.232;17.110;2023-08-21T06:24:27;4.50;;;4.10;;
15132;SDS011;7667;51.232;17.110;2023-08-21T06:26:55;4.27;;;3.80;;
15132;SDS011;7667;51.232;17.110;2023-08-21T06:29:22;4.47;;;3.20;;
15132;SDS011;7667;51.232;17.110;2023-08-21T06:31:51;3.83;;;3.50;;
15132;SDS011;7667;51.232;17.110;2023-08-21T06:34:18;3.40;;;3.00;;
15132;SDS011;7667;51.232;17.110;2023-08-21T06:36:46;3.13;;;2.83;;
15132;SDS011;7667;51.232;17.110;2023-08-21T06:39:13;3.10;;;2.80;;
15132;SDS011;7667;51.232;17.110;2023-08-21T06:41:41;3.20;;;2.90;;
15132;SDS011;7667;51.232;17.110;2023-08-21T06:44:08;3.05;;;2.85;;
15132;SDS011;7667;51.232;17.110;2023-08-21T06:46:36;5.13;;;2.78;;
15132;SDS011;7667;51.232;17.110;2023-08-21T06:49:04;3.65;;;2.80;;
15132;SDS011;7667;51.232;17.110;2023-08-21T06:51:31;3.28;;;2.97;;
15132;SDS011;7667;51.232;17.110;2023-08-21T06:53:59;3.75;;;3.22;;
15132;SDS011;7667;51.232;17.110;2023-08-21T06:56:27;3.00;;;2.67;;
15132;SDS011;7667;51.232;17.110;2023-08-21T06:58:54;3.85;;;2.90;;
15132;SDS011;7667;51.232;17.110;2023-08-21T07:01:22;3.40;;;3.10;;
15132;SDS011;7667;51.232;17.110;2023-08-21T07:03:50;3.33;;;2.90;;
15132;SDS011;7667;51.232;17.110;2023-08-21T07:06:17;3.97;;;3.10;;
15132;SDS011;7667;51.232;17.110;2023-08-21T07:08:45;3.00;;;2.80;;
15132;SDS011;7667;51.232;17.110;2023-08-21T07:11:13;5.18;;;3.08;;
15132;SDS011;7667;51.232;17.110;2023-08-21T07:13:43;4.18;;;3.20;;
15132;SDS011;7667;51.232;17.110;2023-08-21T07:16:10;3.47;;;3.17;;
15132;SDS011;7667;51.232;17.110;2023-08-21T07:18:38;4.10;;;3.22;;
15132;SDS011;7667;51.232;17.110;2023-08-21T07:21:06;3.70;;;3.05;;
15132;SDS011;7667;51.232;17.110;2023-08-21T07:23:53;3.28;;;2.97;;
15132;SDS011;7667;51.232;17.110;2023-08-21T07:26:21;7.30;;;3.60;;
15132;SDS011;7667;51.232;17.110;2023-08-21T07:28:49;3.72;;;3.42;;
15132;SDS011;7667;51.232;17.110;2023-08-21T07:31:16;4.30;;;3.63;;
15132;SDS011;7667;51.232;17.110;2023-08-21T07:33:44;4.75;;;3.75;;
15132;SDS011;7667;51.232;17.110;2023-08-21T07:36:11;4.32;;;3.92;;
15132;SDS011;7667;51.232;17.110;2023-08-21T07:38:44;4.20;;;3.80;;
15132;SDS011;7667;51.232;17.110;2023-08-21T07:41:11;4.38;;;3.85;;
15132;SDS011;7667;51.232;17.110;2023-08-21T07:43:40;3.83;;;3.50;;
15132;SDS011;7667;51.232;17.110;2023-08-21T07:46:10;4.50;;;4.10;;
15132;SDS011;7667;51.232;17.110;2023-08-21T07:48:45;5.47;;;4.15;;
15132;SDS011;7667;51.232;17.110;2023-08-21T07:51:13;4.13;;;3.80;;
15132;SDS011;7667;51.232;17.110;2023-08-21T07:53:40;5.65;;;4.30;;
15132;SDS011;7667;51.232;17.110;2023-08-21T07:56:08;5.82;;;3.70;;
15132;SDS011;7667;51.232;17.110;2023-08-21T07:58:36;4.05;;;3.65;;
15132;SDS011;7667;51.232;17.110;2023-08-21T08:01:03;3.97;;;3.67;;
15132;SDS011;7667;51.232;17.110;2023-08-21T08:03:31;4.38;;;3.60;;
15132;SDS011;7667;51.232;17.110;2023-08-21T08:05:59;6.78;;;5.95;;
15132;SDS011;7667;51.232;17.110;2023-08-21T08:08:27;9.13;;;7.15;;
15132;SDS011;7667;51.232;17.110;2023-08-21T08:10:59;7.40;;;5.13;;
15132;SDS011;7667;51.232;17.110;2023-08-21T08:13:29;5.03;;;3.60;;
15132;SDS011;7667;51.232;17.110;2023-08-21T08:15:57;4.78;;;3.67;;
15132;SDS011;7667;51.232;17.110;2023-08-21T08:18:25;3.65;;;2.42;;
15132;SDS011;7667;51.232;17.110;2023-08-21T08:20:52;3.17;;;2.15;;
15132;SDS011;7667;51.232;17.110;2023-08-21T08:23:20;2.72;;;2.08;;
15132;SDS011;7667;51.232;17.110;2023-08-21T08:25:49;3.58;;;2.40;;
15132;SDS011;7667;51.232;17.110;2023-08-21T08:28:18;4.70;;;1.90;;
15132;SDS011;7667;51.232;17.110;2023-08-21T08:30:46;2.83;;;1.90;;
15132;SDS011;7667;51.232;17.110;2023-08-21T08:33:13;2.47;;;1.90;;
15132;SDS011;7667;51.232;17.110;2023-08-21T08:35:42;2.47;;;1.70;;
15132;SDS011;7667;51.232;17.110;2023-08-21T08:38:12;3.35;;;1.80;;
15132;SDS011;7667;51.232;17.110;2023-08-21T08:40:44;2.63;;;1.70;;
15132;SDS011;7667;51.232;17.110;2023-08-21T08:43:13;1.90;;;1.63;;
15132;SDS011;7667;51.232;17.110;2023-08-21T08:45:41;2.85;;;1.65;;
15132;SDS011;7667;51.232;17.110;2023-08-21T08:48:14;2.22;;;1.65;;
15132;SDS011;7667;51.232;17.110;2023-08-21T08:50:43;2.85;;;1.90;;
15132;SDS011;7667;51.232;17.110;2023-08-21T08:53:12;3.03;;;1.65;;
15132;SDS011;7667;51.232;17.110;2023-08-21T08:55:43;4.40;;;1.60;;
15132;SDS011;7667;51.232;17.110;2023-08-21T08:58:11;1.80;;;1.60;;
15132;SDS011;7667;51.232;17.110;2023-08-21T09:00:39;1.95;;;1.60;;
15132;SDS011;7667;51.232;17.110;2023-08-21T09:03:07;2.90;;;1.60;;
15132;SDS011;7667;51.232;17.110;2023-08-21T09:05:37;2.65;;;1.60;;
15132;SDS011;7667;51.232;17.110;2023-08-21T09:10:33;3.08;;;1.70;;
15132;SDS011;7667;51.232;17.110;2023-08-21T09:13:11;1.70;;;1.60;;
15132;SDS011;7667;51.232;17.110;2023-08-21T09:15:42;5.65;;;1.90;;
15132;SDS011;7667;51.232;17.110;2023-08-21T09:18:11;2.78;;;1.98;;
15132;SDS011;7667;51.232;17.110;2023-08-21T09:20:39;3.83;;;2.05;;
15132;SDS011;7667;51.232;17.110;2023-08-21T09:23:08;3.95;;;2.72;;
15132;SDS011;7667;51.232;17.110;2023-08-21T09:25:45;2.08;;;1.65;;
15132;SDS011;7667;51.232;17.110;2023-08-21T09:28:18;2.17;;;1.83;;
15132;SDS011;7667;51.232;17.110;2023-08-21T09:30:51;3.58;;;1.63;;
15132;SDS011;7667;51.232;17.110;2023-08-21T09:33:21;1.85;;;1.65;;
15132;SDS011;7667;51.232;17.110;2023-08-21T09:35:53;2.45;;;1.92;;
15132;SDS011;7667;51.232;17.110;2023-08-21T09:38:22;2.72;;;1.77;;
15132;SDS011;7667;51.232;17.110;2023-08-21T09:40:53;4.18;;;2.20;;
15132;SDS011;7667;51.232;17.110;2023-08-21T09:43:22;2.08;;;1.90;;
15132;SDS011;7667;51.232;17.110;2023-08-21T09:45:52;2.95;;;2.22;;
15132;SDS011;7667;51.232;17.110;2023-08-21T09:48:23;3.30;;;2.28;;
15132;SDS011;7667;51.232;17.110;2023-08-21T09:50:54;2.67;;;2.17;;
15132;SDS011;7667;51.232;17.110;2023-08-21T09:53:22;3.40;;;2.00;;
15132;SDS011;7667;51.232;17.110;2023-08-21T09:55:52;3.20;;;2.00;;
15132;SDS011;7667;51.232;17.110;2023-08-21T09:58:22;2.30;;;2.10;;
15132;SDS011;7667;51.232;17.110;2023-08-21T10:00:51;3.17;;;2.45;;
15132;SDS011;7667;51.232;17.110;2023-08-21T10:03:24;3.00;;;2.30;;
15132;SDS011;7667;51.232;17.110;2023-08-21T10:05:54;2.20;;;2.00;;
15132;SDS011;7667;51.232;17.110;2023-08-21T10:08:25;3.63;;;2.50;;
15132;SDS011;7667;51.232;17.110;2023-08-21T10:10:54;4.18;;;2.30;;
15132;SDS011;7667;51.232;17.110;2023-08-21T10:13:22;2.95;;;2.42;;
15132;SDS011;7667;51.232;17.110;2023-08-21T10:15:50;4.25;;;2.10;;
15132;SDS011;7667;51.232;17.110;2023-08-21T10:18:22;3.75;;;2.30;;
15132;SDS011;7667;51.232;17.110;2023-08-21T10:20:56;3.30;;;2.03;;
15132;SDS011;7667;51.232;17.110;2023-08-21T10:23:37;2.60;;;1.98;;
15132;SDS011;7667;51.232;17.110;2023-08-21T10:26:11;3.00;;;2.10;;
15132;SDS011;7667;51.232;17.110;2023-08-21T10:31:29;5.22;;;2.38;;
15132;SDS011;7667;51.232;17.110;2023-08-21T10:33:59;5.50;;;2.40;;
15132;SDS011;7667;51.232;17.110;2023-08-21T10:36:39;5.30;;;2.42;;
15132;SDS011;7667;51.232;17.110;2023-08-21T10:39:27;3.05;;;2.40;;
15132;SDS011;7667;51.232;17.110;2023-08-21T10:42:02;4.03;;;2.20;;
15132;SDS011;7667;51.232;17.110;2023-08-21T10:47:32;4.40;;;2.75;;
15132;SDS011;7667;51.232;17.110;2023-08-21T10:50:03;3.67;;;3.00;;
15132;SDS011;7667;51.232;17.110;2023-08-21T10:52:37;3.50;;;2.17;;
15132;SDS011;7667;51.232;17.110;2023-08-21T10:55:14;2.85;;;2.45;;
15132;SDS011;7667;51.232;17.110;2023-08-21T10:57:46;3.35;;;2.45;;
15132;SDS011;7667;51.232;17.110;2023-08-21T11:00:17;2.92;;;2.30;;
15132;SDS011;7667;51.232;17.110;2023-08-21T11:02:46;3.47;;;2.42;;
15132;SDS011;7667;51.232;17.110;2023-08-21T11:05:16;2.90;;;2.60;;
15132;SDS011;7667;51.232;17.110;2023-08-21T11:07:45;3.88;;;2.63;;
15132;SDS011;7667;51.232;17.110;2023-08-21T11:10:16;2.92;;;2.30;;
15132;SDS011;7667;51.232;17.110;2023-08-21T11:12:49;3.97;;;2.65;;
15132;SDS011;7667;51.232;17.110;2023-08-21T11:15:22;3.35;;;2.50;;
15132;SDS011;7667;51.232;17.110;2023-08-21T11:17:53;3.90;;;2.40;;
15132;SDS011;7667;51.232;17.110;2023-08-21T11:20:33;2.85;;;2.42;;
15132;SDS011;7667;51.232;17.110;2023-08-21T11:23:02;2.55;;;2.05;;
15132;SDS011;7667;51.232;17.110;2023-08-21T11:25:34;3.63;;;2.60;;
15132;SDS011;7667;51.232;17.110;2023-08-21T11:28:05;4.13;;;2.40;;
15132;SDS011;7667;51.232;17.110;2023-08-21T11:30:33;2.75;;;2.30;;
15132;SDS011;7667;51.232;17.110;2023-08-21T11:33:05;5.97;;;2.60;;
15132;SDS011;7667;51.232;17.110;2023-08-21T11:35:37;4.38;;;2.53;;
15132;SDS011;7667;51.232;17.110;2023-08-21T11:38:05;3.25;;;2.60;;
15132;SDS011;7667;51.232;17.110;2023-08-21T11:40:42;3.05;;;2.30;;
15132;SDS011;7667;51.232;17.110;2023-08-21T11:46:09;2.70;;;2.15;;
15132;SDS011;7667;51.232;17.110;2023-08-21T11:48:38;3.10;;;2.55;;
15132;SDS011;7667;51.232;17.110;2023-08-21T11:51:07;2.92;;;2.47;;
15132;SDS011;7667;51.232;17.110;2023-08-21T11:53:36;3.17;;;2.40;;
15132;SDS011;7667;51.232;17.110;2023-08-21T11:56:09;3.42;;;2.30;;
15132;SDS011;7667;51.232;17.110;2023-08-21T11:58:43;4.95;;;2.42;;
15132;SDS011;7667;51.232;17.110;2023-08-21T12:01:19;2.88;;;2.10;;
15132;SDS011;7667;51.232;17.110;2023-08-21T12:03:48;3.00;;;2.42;;
15132;SDS011;7667;51.232;17.110;2023-08-21T12:06:22;2.53;;;2.30;;
15132;SDS011;7667;51.232;17.110;2023-08-21T12:08:52;3.80;;;2.47;;
15132;SDS011;7667;51.232;17.110;2023-08-21T12:11:20;4.60;;;2.40;;
15132;SDS011;7667;51.232;17.110;2023-08-21T12:13:48;2.45;;;2.25;;
15132;SDS011;7667;51.232;17.110;2023-08-21T12:16:18;3.53;;;2.65;;
15132;SDS011;7667;51.232;17.110;2023-08-21T12:18:46;2.88;;;2.40;;
15132;SDS011;7667;51.232;17.110;2023-08-21T12:21:14;2.85;;;2.20;;
15132;SDS011;7667;51.232;17.110;2023-08-21T12:23:41;3.00;;;2.42;;
15132;SDS011;7667;51.232;17.110;2023-08-21T12:26:09;3.30;;;2.42;;
15132;SDS011;7667;51.232;17.110;2023-08-21T12:28:36;3.88;;;2.75;;
15132;SDS011;7667;51.232;17.110;2023-08-21T12:31:05;3.22;;;2.90;;
15132;SDS011;7667;51.232;17.110;2023-08-21T12:33:33;3.17;;;2.60;;
15132;SDS011;7667;51.232;17.110;2023-08-21T12:36:00;3.05;;;2.75;;
15132;SDS011;7667;51.232;17.110;2023-08-21T12:38:28;3.47;;;3.17;;
15132;SDS011;7667;51.232;17.110;2023-08-21T12:40:56;4.82;;;3.03;;
15132;SDS011;7667;51.232;17.110;2023-08-21T12:43:23;3.40;;;2.97;;
15132;SDS011;7667;51.232;17.110;2023-08-21T12:45:52;3.15;;;2.80;;
15132;SDS011;7667;51.232;17.110;2023-08-21T12:48:19;4.95;;;2.92;;
15132;SDS011;7667;51.232;17.110;2023-08-21T12:50:47;3.40;;;2.90;;
15132;SDS011;7667;51.232;17.110;2023-08-21T12:53:14;4.88;;;2.75;;
15132;SDS011;7667;51.232;17.110;2023-08-21T12:55:42;3.80;;;2.88;;
15132;SDS011;7667;51.232;17.110;2023-08-21T12:58:09;5.07;;;3.38;;
15132;SDS011;7667;51.232;17.110;2023-08-21T13:00:40;10.10;;;3.00;;
15132;SDS011;7667;51.232;17.110;2023-08-21T13:03:07;4.72;;;3.05;;
15132;SDS011;7667;51.232;17.110;2023-08-21T13:05:35;5.82;;;3.20;;
15132;SDS011;7667;51.232;17.110;2023-08-21T13:08:03;3.10;;;2.80;;
15132;SDS011;7667;51.232;17.110;2023-08-21T13:10:31;6.75;;;3.10;;
15132;SDS011;7667;51.232;17.110;2023-08-21T13:12:58;7.90;;;3.30;;
15132;SDS011;7667;51.232;17.110;2023-08-21T13:15:26;5.00;;;3.25;;
15132;SDS011;7667;51.232;17.110;2023-08-21T13:17:53;4.30;;;3.13;;
15132;SDS011;7667;51.232;17.110;2023-08-21T13:20:21;4.22;;;3.00;;
15132;SDS011;7667;51.232;17.110;2023-08-21T13:22:50;3.67;;;2.67;;
15132;SDS011;7667;51.232;17.110;2023-08-21T13:25:19;4.78;;;3.00;;
15132;SDS011;7667;51.232;17.110;2023-08-21T13:27:49;4.20;;;3.20;;
15132;SDS011;7667;51.232;17.110;2023-08-21T13:30:18;3.90;;;3.22;;
15132;SDS011;7667;51.232;17.110;2023-08-21T13:32:47;5.57;;;2.92;;
15132;SDS011;7667;51.232;17.110;2023-08-21T13:35:14;3.30;;;3.00;;
15132;SDS011;7667;51.232;17.110;2023-08-21T13:37:43;3.15;;;2.60;;
15132;SDS011;7667;51.232;17.110;2023-08-21T13:40:11;4.85;;;3.20;;
15132;SDS011;7667;51.232;17.110;2023-08-21T13:42:41;2.92;;;2.60;;
15132;SDS011;7667;51.232;17.110;2023-08-21T13:45:13;4.38;;;3.40;;
15132;SDS011;7667;51.232;17.110;2023-08-21T13:47:43;3.72;;;3.08;;
15132;SDS011;7667;51.232;17.110;2023-08-21T13:50:15;5.07;;;2.90;;
15132;SDS011;7667;51.232;17.110;2023-08-21T13:52:45;4.10;;;2.83;;
15132;SDS011;7667;51.232;17.110;2023-08-21T13:55:14;2.97;;;2.17;;
15132;SDS011;7667;51.232;17.110;2023-08-21T13:57:44;4.53;;;2.58;;
15132;SDS011;7667;51.232;17.110;2023-08-21T14:00:12;3.28;;;2.90;;
15132;SDS011;7667;51.232;17.110;2023-08-21T14:02:40;2.25;;;2.05;;
15132;SDS011;7667;51.232;17.110;2023-08-21T14:05:09;3.33;;;2.03;;
15132;SDS011;7667;51.232;17.110;2023-08-21T14:07:38;2.60;;;2.22;;
15132;SDS011;7667;51.232;17.110;2023-08-21T14:10:08;2.65;;;2.10;;
15132;SDS011;7667;51.232;17.110;2023-08-21T14:12:36;3.00;;;2.40;;
15132;SDS011;7667;51.232;17.110;2023-08-21T14:15:07;3.13;;;2.20;;
15132;SDS011;7667;51.232;17.110;2023-08-21T14:17:37;4.03;;;2.40;;
15132;SDS011;7667;51.232;17.110;2023-08-21T14:20:05;4.07;;;2.20;;
15132;SDS011;7667;51.232;17.110;2023-08-21T14:22:34;3.08;;;2.70;;
15132;SDS011;7667;51.232;17.110;2023-08-21T14:25:01;3.22;;;2.00;;
15132;SDS011;7667;51.232;17.110;2023-08-21T14:27:32;2.60;;;2.40;;
15132;SDS011;7667;51.232;17.110;2023-08-21T14:30:00;3.47;;;2.25;;
15132;SDS011;7667;51.232;17.110;2023-08-21T14:32:28;6.88;;;2.50;;
15132;SDS011;7667;51.232;17.110;2023-08-21T14:34:56;4.32;;;2.13;;
15132;SDS011;7667;51.232;17.110;2023-08-21T14:37:23;2.03;;;1.88;;
15132;SDS011;7667;51.232;17.110;2023-08-21T14:39:51;2.33;;;2.13;;
15132;SDS011;7667;51.232;17.110;2023-08-21T14:42:18;3.42;;;2.20;;
15132;SDS011;7667;51.232;17.110;2023-08-21T14:44:46;3.17;;;2.00;;
15132;SDS011;7667;51.232;17.110;2023-08-21T14:47:13;3.53;;;2.20;;
15132;SDS011;7667;51.232;17.110;2023-08-21T14:49:41;2.72;;;2.10;;
15132;SDS011;7667;51.232;17.110;2023-08-21T14:52:09;5.03;;;2.05;;
15132;SDS011;7667;51.232;17.110;2023-08-21T14:54:36;3.10;;;2.30;;
15132;SDS011;7667;51.232;17.110;2023-08-21T14:57:04;1.88;;;1.67;;
15132;SDS011;7667;51.232;17.110;2023-08-21T14:59:31;3.80;;;2.08;;
15132;SDS011;7667;51.232;17.110;2023-08-21T15:01:59;2.78;;;2.00;;
15132;SDS011;7667;51.232;17.110;2023-08-21T15:04:26;3.85;;;3.03;;
15132;SDS011;7667;51.232;17.110;2023-08-21T15:06:54;2.50;;;2.13;;